Time;durP1;ratioP1;P1;durP2;ratioP2;P2;SDS_P1;SDS_P2;PMS_P1;PMS_P2;Temp;Humidity;BMP_temperature;BMP_pressure;BME280_temperature;BME280_humidity;BME280_pressure;Samples;Min_cycle;Max_cycle;Signal;HPM_P1;HPM_P2
2024/04/05 00:01:51;;;;;;;;;;;10.60;99.90;;;;;;4903645;29;19927;-66
2024/04/05 00:04:17;;;;;;;;;;;10.60;99.90;;;;;;4907470;29;19931;-66
2024/04/05 00:06:43;;;;;;;;;;;10.60;99.90;;;;;;4932480;29;19931;-66
2024/04/05 00:09:09;;;;;;;;;;;10.60;99.90;;;;;;4910086;29;20414;-67
2024/04/05 00:11:35;;;;;;;;;;;10.60;99.90;;;;;;4928889;29;19935;-66
2024/04/05 00:14:02;;;;;;;;;;;10.60;99.90;;;;;;4903446;29;19933;-66
2024/04/05 00:16:28;;;;;;;;;;;10.50;99.90;;;;;;4911722;29;19930;-67
2024/04/05 00:18:55;;;;;;;;;;;10.50;99.90;;;;;;4925761;29;19931;-66
2024/04/05 00:21:21;;;;;;;;;;;10.40;99.90;;;;;;4899610;29;20307;-66
2024/04/05 00:23:49;;;;;;;;;;;10.40;99.90;;;;;;4913792;29;19934;-67
2024/04/05 00:26:15;;;;;;;;;;;10.40;99.90;;;;;;4922539;29;19986;-67
2024/04/05 00:28:41;;;;;;;;;;;10.40;99.90;;;;;;4925334;29;19931;-66
2024/04/05 00:31:08;;;;;;;;;;;10.40;99.90;;;;;;4920617;29;20395;-67
2024/04/05 00:33:35;;;;;;;;;;;10.40;99.90;;;;;;4922004;29;19975;-67
2024/04/05 00:36:01;;;;;;;;;;;10.40;99.90;;;;;;4926056;29;19928;-66
2024/04/05 00:38:26;;;;;;;;;;;10.40;99.90;;;;;;4919090;29;19931;-66
2024/04/05 00:40:54;;;;;;;;;;;10.40;99.90;;;;;;4918564;29;19933;-66
2024/04/05 00:43:20;;;;;;;;;;;10.40;99.90;;;;;;4922623;29;19927;-67
2024/04/05 00:45:47;;;;;;;;;;;10.40;99.90;;;;;;4917938;29;20311;-66
2024/04/05 00:48:14;;;;;;;;;;;10.50;99.90;;;;;;4927648;29;20142;-67
2024/04/05 00:50:40;;;;;;;;;;;10.50;99.90;;;;;;4916107;29;19931;-66
2024/04/05 00:53:08;;;;;;;;;;;10.50;99.90;;;;;;4923286;29;19934;-66
2024/04/05 00:55:36;;;;;;;;;;;10.50;99.90;;;;;;4905141;29;19937;-67
2024/04/05 00:58:03;;;;;;;;;;;10.50;99.90;;;;;;4922850;29;19974;-67
2024/04/05 01:00:30;;;;;;;;;;;10.50;99.90;;;;;;4913131;29;19962;-67
2024/04/05 01:02:56;;;;;;;;;;;10.40;99.90;;;;;;4908288;29;20453;-66
2024/04/05 01:05:22;;;;;;;;;;;10.40;99.90;;;;;;4914182;29;19927;-66
2024/04/05 01:07:49;;;;;;;;;;;10.40;99.90;;;;;;4917372;29;19927;-66
2024/04/05 01:10:15;;;;;;;;;;;10.50;99.90;;;;;;4919675;29;19928;-66
2024/04/05 01:12:41;;;;;;;;;;;10.50;99.90;;;;;;4920432;29;20068;-66
2024/04/05 01:15:06;;;;;;;;;;;10.50;99.90;;;;;;4902521;29;20478;-66
2024/04/05 01:17:34;;;;;;;;;;;10.50;99.90;;;;;;4921358;29;19966;-67
2024/04/05 01:20:01;;;;;;;;;;;10.60;99.90;;;;;;4916922;29;20315;-66
2024/04/05 01:22:29;;;;;;;;;;;10.70;99.90;;;;;;4906162;29;19934;-66
2024/04/05 01:24:55;;;;;;;;;;;10.70;99.90;;;;;;4918890;29;19934;-66
2024/04/05 01:27:21;;;;;;;;;;;10.70;99.90;;;;;;4901197;29;20678;-66
2024/04/05 01:29:47;;;;;;;;;;;10.70;99.90;;;;;;4916222;29;19934;-66
2024/04/05 01:32:13;;;;;;;;;;;10.70;99.90;;;;;;4932404;29;19953;-66
2024/04/05 01:34:38;;;;;;;;;;;10.60;99.90;;;;;;4918777;29;20392;-66
2024/04/05 01:37:05;;;;;;;;;;;10.50;99.90;;;;;;4908735;29;19927;-66
2024/04/05 01:39:31;;;;;;;;;;;10.60;99.90;;;;;;4941264;29;19934;-66
2024/04/05 01:41:56;;;;;;;;;;;10.50;99.90;;;;;;4904827;29;19926;-66
2024/04/05 01:44:22;;;;;;;;;;;10.50;99.90;;;;;;4920532;29;19937;-66
2024/04/05 01:46:48;;;;;;;;;;;10.50;99.90;;;;;;4930254;29;19935;-66
2024/04/05 01:49:14;;;;;;;;;;;10.50;99.90;;;;;;4923188;29;19928;-66
2024/04/05 01:51:40;;;;;;;;;;;10.50;99.90;;;;;;4904047;29;19931;-66
2024/04/05 01:54:06;;;;;;;;;;;10.50;99.90;;;;;;4915248;29;19926;-66
2024/04/05 01:56:32;;;;;;;;;;;10.50;99.90;;;;;;4914342;29;19931;-66
2024/04/05 01:58:57;;;;;;;;;;;10.50;99.90;;;;;;4927768;29;20301;-66
2024/04/05 02:01:23;;;;;;;;;;;10.50;99.90;;;;;;4914484;29;19934;-66
2024/04/05 02:03:51;;;;;;;;;;;10.50;99.90;;;;;;4929081;29;19954;-66
2024/04/05 02:06:18;;;;;;;;;;;10.50;99.90;;;;;;4929637;29;19935;-66
2024/04/05 02:08:43;;;;;;;;;;;10.50;99.90;;;;;;4931506;29;20022;-67
2024/04/05 02:11:09;;;;;;;;;;;10.50;99.90;;;;;;4921435;29;20021;-66
2024/04/05 02:13:36;;;;;;;;;;;10.50;99.90;;;;;;4902707;29;20009;-67
2024/04/05 02:16:02;;;;;;;;;;;10.60;99.90;;;;;;4923534;29;19927;-66
2024/04/05 02:18:28;;;;;;;;;;;10.50;99.90;;;;;;4919885;29;20414;-67
2024/04/05 02:20:55;;;;;;;;;;;10.60;99.90;;;;;;4928761;29;19987;-66
2024/04/05 02:23:21;;;;;;;;;;;10.60;99.90;;;;;;4922179;29;19931;-66
2024/04/05 02:25:47;;;;;;;;;;;10.60;99.90;;;;;;4903235;29;20312;-66
2024/04/05 02:28:14;;;;;;;;;;;10.60;99.90;;;;;;4935286;29;20319;-66
2024/04/05 02:30:40;;;;;;;;;;;10.50;99.90;;;;;;4923176;29;19933;-66
2024/04/05 02:33:06;;;;;;;;;;;10.50;99.90;;;;;;4920716;29;19934;-66
2024/04/05 02:35:32;;;;;;;;;;;10.50;99.90;;;;;;4924878;29;20465;-66
2024/04/05 02:37:58;;;;;;;;;;;10.50;99.90;;;;;;4909698;29;20014;-67
2024/04/05 02:40:23;;;;;;;;;;;10.50;99.90;;;;;;4928023;29;19935;-66
2024/04/05 02:42:50;;;;;;;;;;;10.50;99.90;;;;;;4924092;29;19985;-66
2024/04/05 02:45:15;;;;;;;;;;;10.50;99.90;;;;;;4928157;29;19931;-67
2024/04/05 02:47:41;;;;;;;;;;;10.50;99.90;;;;;;4912662;29;19927;-66
2024/04/05 02:50:07;;;;;;;;;;;10.50;99.90;;;;;;4915616;29;19933;-66
2024/04/05 02:52:33;;;;;;;;;;;10.40;99.90;;;;;;4915585;29;19935;-66
2024/04/05 02:54:59;;;;;;;;;;;10.40;99.90;;;;;;4926960;29;19938;-67
2024/04/05 02:57:25;;;;;;;;;;;10.40;99.90;;;;;;4928242;29;19931;-66
2024/04/05 02:59:51;;;;;;;;;;;10.40;99.90;;;;;;4908952;29;20059;-66
2024/04/05 03:02:17;;;;;;;;;;;10.40;99.90;;;;;;4922522;29;19934;-66
2024/04/05 03:04:42;;;;;;;;;;;10.40;99.90;;;;;;4930679;29;19927;-66
2024/04/05 03:07:08;;;;;;;;;;;10.40;99.90;;;;;;4919598;29;20311;-66
2024/04/05 03:09:35;;;;;;;;;;;10.30;99.90;;;;;;4926213;29;19931;-67
2024/04/05 03:12:01;;;;;;;;;;;10.30;99.90;;;;;;4945430;28;19946;-67
2024/04/05 03:14:27;;;;;;;;;;;10.30;99.90;;;;;;4918401;29;19927;-66
2024/04/05 03:16:53;;;;;;;;;;;10.30;99.90;;;;;;4931456;29;20700;-67
2024/04/05 03:19:19;;;;;;;;;;;10.30;99.90;;;;;;4920210;29;20025;-66
2024/04/05 03:21:45;;;;;;;;;;;10.20;99.90;;;;;;4919737;29;19926;-66
2024/04/05 03:24:11;;;;;;;;;;;10.20;99.90;;;;;;4929618;29;19927;-66
2024/04/05 03:26:38;;;;;;;;;;;10.20;99.90;;;;;;4919863;29;20088;-66
2024/04/05 03:29:04;;;;;;;;;;;10.20;99.90;;;;;;4928474;29;19939;-66
2024/04/05 03:31:30;;;;;;;;;;;10.20;99.90;;;;;;4927024;29;19926;-67
2024/04/05 03:33:56;;;;;;;;;;;10.20;99.90;;;;;;4927165;29;20029;-67
2024/04/05 03:36:22;;;;;;;;;;;10.20;99.90;;;;;;4920208;29;20000;-66
2024/04/05 03:38:51;;;;;;;;;;;10.20;99.90;;;;;;4918003;29;20455;-66
2024/04/05 03:41:17;;;;;;;;;;;10.10;99.90;;;;;;4919690;29;19927;-67
2024/04/05 03:43:44;;;;;;;;;;;10.10;99.90;;;;;;4920226;29;20021;-66
2024/04/05 03:46:10;;;;;;;;;;;10.10;99.90;;;;;;4928760;29;19938;-66
2024/04/05 03:48:36;;;;;;;;;;;10.10;99.90;;;;;;4911493;29;19931;-66
2024/04/05 03:51:02;;;;;;;;;;;10.00;99.90;;;;;;4911876;29;20531;-66
2024/04/05 03:53:28;;;;;;;;;;;10.00;99.90;;;;;;4924149;29;19927;-66
2024/04/05 03:55:54;;;;;;;;;;;10.00;99.90;;;;;;4919820;29;19982;-67
2024/04/05 03:58:21;;;;;;;;;;;10.10;99.90;;;;;;4923200;29;19939;-67
2024/04/05 04:00:50;;;;;;;;;;;10.00;99.90;;;;;;4921180;29;19927;-66
2024/04/05 04:03:16;;;;;;;;;;;10.10;99.90;;;;;;4925767;29;19931;-66
2024/04/05 04:05:43;;;;;;;;;;;10.10;99.90;;;;;;4926685;29;19959;-66
2024/04/05 04:08:09;;;;;;;;;;;10.10;99.90;;;;;;4911295;29;19985;-66
2024/04/05 04:10:35;;;;;;;;;;;10.10;99.90;;;;;;4904270;29;20392;-66
2024/04/05 04:13:00;;;;;;;;;;;10.10;99.90;;;;;;4907528;29;20062;-66
2024/04/05 04:15:26;;;;;;;;;;;10.00;99.90;;;;;;4930411;29;20307;-67
2024/04/05 04:17:52;;;;;;;;;;;10.10;99.90;;;;;;4922725;29;19935;-67
2024/04/05 04:20:19;;;;;;;;;;;10.10;99.90;;;;;;4919568;29;19966;-67
2024/04/05 04:22:45;;;;;;;;;;;10.00;99.90;;;;;;4929745;29;19931;-66
2024/04/05 04:25:11;;;;;;;;;;;10.00;99.90;;;;;;4925670;29;19999;-66
2024/04/05 04:27:37;;;;;;;;;;;10.00;99.90;;;;;;4903322;29;20407;-66
2024/04/05 04:30:04;;;;;;;;;;;10.00;99.90;;;;;;4931395;29;19931;-66
2024/04/05 04:32:33;;;;;;;;;;;9.90;99.90;;;;;;4919872;29;20422;-67
2024/04/05 04:34:59;;;;;;;;;;;9.90;99.90;;;;;;4914135;29;20430;-67
2024/04/05 04:37:25;;;;;;;;;;;9.90;99.90;;;;;;4938912;29;19934;-66
2024/04/05 04:39:51;;;;;;;;;;;9.90;99.90;;;;;;4917465;29;19935;-66
2024/04/05 04:42:19;;;;;;;;;;;9.80;99.90;;;;;;4926069;29;19934;-67
2024/04/05 04:44:45;;;;;;;;;;;9.80;99.90;;;;;;4915405;29;20096;-66
2024/04/05 04:47:11;;;;;;;;;;;9.80;99.90;;;;;;4926638;29;19927;-66
2024/04/05 04:49:37;;;;;;;;;;;9.90;99.90;;;;;;4929138;29;20338;-66
2024/04/05 04:52:04;;;;;;;;;;;9.80;99.90;;;;;;4900126;29;19931;-66
2024/04/05 04:54:30;;;;;;;;;;;9.80;99.90;;;;;;4920965;29;19927;-66
2024/04/05 04:56:55;;;;;;;;;;;9.80;99.90;;;;;;4918280;29;20634;-66
2024/04/05 04:59:28;;;;;;;;;;;9.80;99.90;;;;;;4926389;29;19959;-66
2024/04/05 05:01:54;;;;;;;;;;;9.80;99.90;;;;;;4918526;29;20002;-66
2024/04/05 05:04:20;;;;;;;;;;;9.80;99.90;;;;;;4918125;29;19962;-66
2024/04/05 05:06:46;;;;;;;;;;;9.90;99.90;;;;;;4898885;29;19927;-66
2024/04/05 05:09:15;;;;;;;;;;;9.90;99.90;;;;;;4920967;29;20411;-66
2024/04/05 05:11:41;;;;;;;;;;;9.90;99.90;;;;;;4887215;29;19927;-66
2024/04/05 05:14:07;;;;;;;;;;;9.80;99.90;;;;;;4908135;29;19931;-66
2024/04/05 05:16:33;;;;;;;;;;;9.80;99.90;;;;;;4924133;29;19935;-66
2024/04/05 05:18:59;;;;;;;;;;;9.80;99.90;;;;;;4920897;29;19938;-66
2024/04/05 05:21:25;;;;;;;;;;;9.80;99.90;;;;;;4917984;29;19934;-66
2024/04/05 05:23:51;;;;;;;;;;;9.80;99.90;;;;;;4917506;29;19927;-66
2024/04/05 05:26:17;;;;;;;;;;;9.80;99.90;;;;;;4925631;29;19934;-66
2024/04/05 05:28:43;;;;;;;;;;;9.80;99.90;;;;;;4918372;29;20295;-67
2024/04/05 05:31:08;;;;;;;;;;;9.80;99.90;;;;;;4923637;29;19938;-66
2024/04/05 05:33:34;;;;;;;;;;;9.80;99.90;;;;;;4929426;29;19934;-66
2024/04/05 05:36:00;;;;;;;;;;;9.80;99.90;;;;;;4920273;29;19934;-66
2024/04/05 05:38:27;;;;;;;;;;;9.90;99.90;;;;;;4915280;29;19927;-66
2024/04/05 05:40:52;;;;;;;;;;;9.90;99.90;;;;;;4912594;29;19938;-66
2024/04/05 05:43:18;;;;;;;;;;;9.90;99.90;;;;;;4936239;29;19927;-67
2024/04/05 05:45:44;;;;;;;;;;;10.00;99.90;;;;;;4917858;29;19927;-66
2024/04/05 05:48:10;;;;;;;;;;;10.00;99.90;;;;;;4941708;29;20471;-66
2024/04/05 05:50:37;;;;;;;;;;;10.00;99.90;;;;;;4917772;29;20413;-66
2024/04/05 05:53:02;;;;;;;;;;;10.00;99.90;;;;;;4931581;29;19970;-66
2024/04/05 05:55:28;;;;;;;;;;;10.00;99.90;;;;;;4920621;29;19932;-66
2024/04/05 05:57:57;;;;;;;;;;;10.00;99.90;;;;;;4915877;29;20391;-66
2024/04/05 06:00:22;;;;;;;;;;;10.10;99.90;;;;;;4925921;29;19958;-66
2024/04/05 06:02:48;;;;;;;;;;;10.10;99.90;;;;;;4918304;29;19927;-66
2024/04/05 06:05:15;;;;;;;;;;;10.10;99.90;;;;;;4934964;29;19927;-66
2024/04/05 06:07:41;;;;;;;;;;;10.10;99.90;;;;;;4925447;29;20054;-66
2024/04/05 06:10:07;;;;;;;;;;;10.10;99.90;;;;;;4927711;29;20289;-66
2024/04/05 06:12:35;;;;;;;;;;;10.20;99.90;;;;;;4922845;29;20008;-66
2024/04/05 06:15:01;;;;;;;;;;;10.20;99.90;;;;;;4920532;29;19941;-66
2024/04/05 06:17:27;;;;;;;;;;;10.10;99.90;;;;;;4920484;29;19927;-66
2024/04/05 06:19:54;;;;;;;;;;;10.10;99.90;;;;;;4920415;29;19934;-66
2024/04/05 06:22:20;;;;;;;;;;;10.10;99.90;;;;;;4921276;29;19927;-66
2024/04/05 06:24:50;;;;;;;;;;;10.10;99.90;;;;;;4925811;29;19927;-66
2024/04/05 06:27:16;;;;;;;;;;;10.10;99.90;;;;;;4929187;29;20343;-66
2024/04/05 06:29:42;;;;;;;;;;;10.10;99.90;;;;;;4907131;29;19935;-66
2024/04/05 06:32:07;;;;;;;;;;;10.10;99.90;;;;;;4920293;29;19970;-66
2024/04/05 06:34:37;;;;;;;;;;;10.10;99.90;;;;;;4904446;29;20419;-66
2024/04/05 06:37:03;;;;;;;;;;;10.10;99.90;;;;;;4930493;29;19987;-66
2024/04/05 06:39:29;;;;;;;;;;;10.20;99.90;;;;;;4917151;29;20017;-66
2024/04/05 06:41:55;;;;;;;;;;;10.20;99.90;;;;;;4918560;29;20350;-66
2024/04/05 06:44:21;;;;;;;;;;;10.20;99.90;;;;;;4919553;29;19927;-66
2024/04/05 06:46:47;;;;;;;;;;;10.20;99.90;;;;;;4902816;29;19927;-66
2024/04/05 06:49:14;;;;;;;;;;;10.20;99.90;;;;;;4893018;29;19942;-66
2024/04/05 06:51:40;;;;;;;;;;;10.20;99.90;;;;;;4919966;29;19985;-66
2024/04/05 06:54:06;;;;;;;;;;;10.20;99.90;;;;;;4921354;29;19926;-64
2024/04/05 06:56:31;;;;;;;;;;;10.30;99.90;;;;;;4907327;29;19931;-63
2024/04/05 06:58:58;;;;;;;;;;;10.30;99.90;;;;;;4921137;29;19935;-63
2024/04/05 07:01:23;;;;;;;;;;;10.40;99.90;;;;;;4921446;29;19931;-64
2024/04/05 07:03:49;;;;;;;;;;;10.40;99.90;;;;;;4923805;29;19931;-64
2024/04/05 07:06:16;;;;;;;;;;;10.50;99.90;;;;;;4930867;29;20418;-65
2024/04/05 07:08:42;;;;;;;;;;;10.60;99.90;;;;;;4921010;29;19982;-65
2024/04/05 07:11:09;;;;;;;;;;;10.70;99.90;;;;;;4918570;29;19931;-64
2024/04/05 07:13:35;;;;;;;;;;;10.80;99.90;;;;;;4919893;29;19935;-64
2024/04/05 07:16:01;;;;;;;;;;;10.90;99.90;;;;;;4927085;29;20051;-64
2024/04/05 07:18:27;;;;;;;;;;;11.00;99.90;;;;;;4910347;29;19927;-64
2024/04/05 07:20:56;;;;;;;;;;;11.00;99.90;;;;;;4900527;29;20582;-64
2024/04/05 07:23:22;;;;;;;;;;;11.20;99.90;;;;;;4922329;29;19998;-64
2024/04/05 07:25:48;;;;;;;;;;;11.20;99.90;;;;;;4920119;29;20383;-65
2024/04/05 07:28:14;;;;;;;;;;;11.40;99.90;;;;;;4927163;29;19939;-64
2024/04/05 07:30:40;;;;;;;;;;;11.50;99.90;;;;;;4916900;29;19934;-65
2024/04/05 07:33:07;;;;;;;;;;;11.60;99.90;;;;;;4918793;29;19979;-65
2024/04/05 07:35:32;;;;;;;;;;;11.70;99.90;;;;;;4927337;29;20311;-65
2024/04/05 07:37:58;;;;;;;;;;;11.80;99.90;;;;;;4920379;29;19951;-65
2024/04/05 07:40:26;;;;;;;;;;;12.00;99.90;;;;;;4910759;29;19934;-65
2024/04/05 07:42:52;;;;;;;;;;;12.10;99.90;;;;;;4919410;29;20387;-65
2024/04/05 07:45:19;;;;;;;;;;;12.20;99.90;;;;;;4918784;29;19927;-65
2024/04/05 07:47:48;;;;;;;;;;;12.30;99.90;;;;;;4912513;29;19967;-65
2024/04/05 07:50:20;;;;;;;;;;;12.50;99.90;;;;;;4916502;29;19931;-65
2024/04/05 07:52:53;;;;;;;;;;;12.60;99.90;;;;;;4918479;29;20368;-64
2024/04/05 07:55:19;;;;;;;;;;;12.60;99.90;;;;;;4913739;29;19975;-65
2024/04/05 07:57:45;;;;;;;;;;;12.70;99.90;;;;;;4918149;29;20557;-68
2024/04/05 08:00:14;;;;;;;;;;;12.80;99.90;;;;;;4917990;29;19926;-67
2024/04/05 08:02:44;;;;;;;;;;;12.90;99.90;;;;;;4930923;29;19927;-67
2024/04/05 08:05:11;;;;;;;;;;;12.90;99.90;;;;;;4930521;29;19937;-68
2024/04/05 08:07:36;;;;;;;;;;;13.00;99.90;;;;;;4898549;29;20302;-66
2024/04/05 08:10:02;;;;;;;;;;;13.10;99.90;;;;;;4918022;29;19931;-64
2024/04/05 08:12:28;;;;;;;;;;;13.10;99.90;;;;;;4923996;29;19935;-64
2024/04/05 08:14:55;;;;;;;;;;;13.20;99.90;;;;;;4923582;29;20371;-65
2024/04/05 08:17:21;;;;;;;;;;;13.30;99.90;;;;;;4920458;29;19927;-64
2024/04/05 08:19:49;;;;;;;;;;;13.40;99.90;;;;;;4922680;29;19927;-64
2024/04/05 08:22:16;;;;;;;;;;;13.50;99.90;;;;;;4924815;29;19927;-64
2024/04/05 08:24:42;;;;;;;;;;;13.50;99.90;;;;;;4917779;29;19933;-64
2024/04/05 08:27:08;;;;;;;;;;;13.60;99.90;;;;;;4915843;29;20412;-64
2024/04/05 08:29:35;;;;;;;;;;;13.70;99.90;;;;;;4917379;29;19934;-65
2024/04/05 08:32:01;;;;;;;;;;;13.90;99.90;;;;;;4903188;29;20407;-64
2024/04/05 08:34:27;;;;;;;;;;;14.00;99.90;;;;;;4910306;29;19934;-64
2024/04/05 08:36:54;;;;;;;;;;;14.00;99.90;;;;;;4902173;29;19974;-64
2024/04/05 08:39:20;;;;;;;;;;;14.10;99.90;;;;;;4931349;29;19934;-64
2024/04/05 08:41:48;;;;;;;;;;;14.20;99.90;;;;;;4933273;29;19982;-67
2024/04/05 08:44:16;;;;;;;;;;;14.30;99.90;;;;;;4923810;29;19927;-67
2024/04/05 08:46:43;;;;;;;;;;;14.40;99.90;;;;;;4915289;29;19986;-66
2024/04/05 08:49:13;;;;;;;;;;;14.50;99.90;;;;;;4886842;29;19927;-66
2024/04/05 08:51:39;;;;;;;;;;;14.60;99.90;;;;;;4932795;29;20334;-66
2024/04/05 08:54:07;;;;;;;;;;;14.70;99.90;;;;;;4924996;29;20370;-66
2024/04/05 08:56:34;;;;;;;;;;;14.90;99.90;;;;;;4925536;29;19931;-66
2024/04/05 08:59:00;;;;;;;;;;;15.00;99.90;;;;;;4903880;29;19930;-67
2024/04/05 09:01:26;;;;;;;;;;;15.10;99.90;;;;;;4927806;29;19927;-66
2024/04/05 09:03:52;;;;;;;;;;;15.20;99.90;;;;;;4925861;29;19931;-66
2024/04/05 09:06:19;;;;;;;;;;;15.40;99.90;;;;;;4906495;29;19978;-67
2024/04/05 09:08:46;;;;;;;;;;;15.50;99.90;;;;;;4916527;29;20327;-67
2024/04/05 09:11:25;;;;;;;;;;;15.60;99.90;;;;;;4919382;29;20273;-67
2024/04/05 09:14:01;;;;;;;;;;;15.80;99.90;;;;;;4923494;29;19931;-64
2024/04/05 09:16:27;;;;;;;;;;;16.00;99.90;;;;;;4902161;29;19931;-64
2024/04/05 09:19:09;;;;;;;;;;;16.10;99.90;;;;;;4927401;29;19927;-64
2024/04/05 09:21:41;;;;;;;;;;;16.30;99.90;;;;;;4918612;29;20425;-64
2024/04/05 09:24:07;;;;;;;;;;;16.40;99.90;;;;;;4916620;29;20257;-64
2024/04/05 09:26:34;;;;;;;;;;;16.50;99.90;;;;;;4926747;29;20610;-64
2024/04/05 09:29:03;;;;;;;;;;;16.70;99.90;;;;;;4930806;29;19998;-64
2024/04/05 09:31:29;;;;;;;;;;;16.80;99.90;;;;;;4917885;29;20371;-65
2024/04/05 09:34:14;;;;;;;;;;;16.90;99.90;;;;;;4932084;29;19934;-64
2024/04/05 09:36:40;;;;;;;;;;;17.00;99.90;;;;;;4918146;29;19931;-64
2024/04/05 09:39:09;;;;;;;;;;;17.10;99.90;;;;;;4914215;29;20378;-64
2024/04/05 09:41:36;;;;;;;;;;;17.20;99.90;;;;;;4918280;29;20060;-64
2024/04/05 09:44:02;;;;;;;;;;;17.30;99.90;;;;;;4924081;29;19942;-64
2024/04/05 09:46:28;;;;;;;;;;;17.40;99.90;;;;;;4933911;29;19927;-64
2024/04/05 09:48:58;;;;;;;;;;;17.60;99.90;;;;;;4912712;29;20811;-64
2024/04/05 09:51:26;;;;;;;;;;;17.70;99.90;;;;;;4914690;29;19935;-64
2024/04/05 09:53:52;;;;;;;;;;;17.80;99.90;;;;;;4928328;29;19927;-64
2024/04/05 09:56:19;;;;;;;;;;;17.90;99.90;;;;;;4927323;29;19926;-64
2024/04/05 09:58:49;;;;;;;;;;;18.00;99.90;;;;;;4914531;29;19986;-64
2024/04/05 10:01:16;;;;;;;;;;;18.10;99.90;;;;;;4916861;29;19927;-64
2024/04/05 10:03:42;;;;;;;;;;;18.20;99.90;;;;;;4931014;29;20411;-64
2024/04/05 10:06:12;;;;;;;;;;;18.30;99.90;;;;;;4910281;29;19931;-64
2024/04/05 10:08:39;;;;;;;;;;;18.40;99.90;;;;;;4906208;29;19927;-64
2024/04/05 10:11:09;;;;;;;;;;;18.60;99.90;;;;;;4928481;29;19927;-64
2024/04/05 10:13:35;;;;;;;;;;;18.60;99.90;;;;;;4929648;29;19941;-65
2024/04/05 10:16:01;;;;;;;;;;;18.70;99.90;;;;;;4900459;29;19946;-64
2024/04/05 10:18:34;;;;;;;;;;;18.80;99.90;;;;;;4926774;29;19927;-64
2024/04/05 10:21:04;;;;;;;;;;;19.10;99.90;;;;;;4931966;29;19982;-64
2024/04/05 10:23:30;;;;;;;;;;;19.20;99.90;;;;;;4918185;29;20302;-64
2024/04/05 10:25:56;;;;;;;;;;;19.30;99.90;;;;;;4915373;29;19951;-64
2024/04/05 10:28:22;;;;;;;;;;;19.40;99.90;;;;;;4904143;29;19931;-64
2024/04/05 10:30:49;;;;;;;;;;;19.60;99.90;;;;;;4922315;29;19935;-64
2024/04/05 10:33:19;;;;;;;;;;;19.70;99.90;;;;;;4917652;29;20410;-64
2024/04/05 10:35:45;;;;;;;;;;;19.70;99.90;;;;;;4910374;29;19939;-64
2024/04/05 10:38:11;;;;;;;;;;;19.80;99.90;;;;;;4915382;29;19969;-64
2024/04/05 10:40:37;;;;;;;;;;;19.90;99.90;;;;;;4927240;29;19930;-64
2024/04/05 10:43:10;;;;;;;;;;;19.90;99.90;;;;;;4904544;29;19930;-64
2024/04/05 10:45:37;;;;;;;;;;;20.00;99.90;;;;;;4917233;29;19938;-64
2024/04/05 10:48:04;;;;;;;;;;;20.00;99.90;;;;;;4916777;29;19982;-64
2024/04/05 10:50:30;;;;;;;;;;;20.10;99.90;;;;;;4919874;29;20428;-64
2024/04/05 10:52:56;;;;;;;;;;;20.20;99.90;;;;;;4915722;29;19950;-64
2024/04/05 10:55:22;;;;;;;;;;;20.30;99.90;;;;;;4918952;29;19930;-64
2024/04/05 10:57:48;;;;;;;;;;;20.40;99.90;;;;;;4931286;29;19926;-64
2024/04/05 11:00:14;;;;;;;;;;;20.40;99.90;;;;;;4921221;29;19942;-64
2024/04/05 11:02:40;;;;;;;;;;;20.40;99.90;;;;;;4920454;29;19970;-64
2024/04/05 11:05:08;;;;;;;;;;;20.50;99.90;;;;;;4919406;29;19935;-64
2024/04/05 11:07:34;;;;;;;;;;;20.50;99.90;;;;;;4918550;29;19934;-64
2024/04/05 11:10:11;;;;;;;;;;;20.60;99.90;;;;;;4935984;29;19930;-64
2024/04/05 11:12:38;;;;;;;;;;;20.60;99.90;;;;;;4935029;29;19990;-64
2024/04/05 11:15:04;;;;;;;;;;;20.70;99.90;;;;;;4918812;29;19934;-64
2024/04/05 11:17:30;;;;;;;;;;;20.70;99.90;;;;;;4909976;29;20462;-65
2024/04/05 11:20:06;;;;;;;;;;;20.80;99.90;;;;;;4921012;29;19969;-64
2024/04/05 11:22:31;;;;;;;;;;;20.80;99.90;;;;;;4924820;29;20685;-64
2024/04/05 11:24:57;;;;;;;;;;;20.80;99.90;;;;;;4923500;29;19933;-64
2024/04/05 11:27:23;;;;;;;;;;;20.90;99.90;;;;;;4927901;29;19931;-65
2024/04/05 11:29:49;;;;;;;;;;;21.00;99.90;;;;;;4919986;29;19938;-65
2024/04/05 11:32:25;;;;;;;;;;;21.00;99.90;;;;;;4921405;29;19933;-65
2024/04/05 11:34:51;;;;;;;;;;;21.20;99.90;;;;;;4919786;29;19973;-65
2024/04/05 11:37:17;;;;;;;;;;;21.20;99.90;;;;;;4919884;29;19931;-64
2024/04/05 11:39:43;;;;;;;;;;;21.40;99.90;;;;;;4931934;29;19931;-65
2024/04/05 11:42:09;;;;;;;;;;;21.60;99.90;;;;;;4911022;29;19934;-64
2024/04/05 11:44:35;;;;;;;;;;;21.70;99.90;;;;;;4921109;29;19934;-65
2024/04/05 11:47:01;;;;;;;;;;;21.70;97.80;;;;;;4919718;29;19931;-65
2024/04/05 11:49:27;;;;;;;;;;;21.70;99.60;;;;;;4929424;28;19931;-66
2024/04/05 11:51:53;;;;;;;;;;;21.80;98.00;;;;;;4942768;29;19978;-66
2024/04/05 11:54:18;;;;;;;;;;;21.90;99.00;;;;;;4917323;29;20017;-65
2024/04/05 11:56:45;;;;;;;;;;;21.90;97.70;;;;;;4909096;29;19941;-64
2024/04/05 11:59:10;;;;;;;;;;;22.00;96.90;;;;;;4923166;29;19981;-64
2024/04/05 12:01:37;;;;;;;;;;;22.10;97.50;;;;;;4919236;29;19985;-64
2024/04/05 12:04:03;;;;;;;;;;;22.10;97.10;;;;;;4920196;29;19927;-64
2024/04/05 12:06:28;;;;;;;;;;;22.10;96.80;;;;;;4918043;29;19935;-64
2024/04/05 12:08:54;;;;;;;;;;;22.20;95.00;;;;;;4904907;29;20462;-64
2024/04/05 12:11:20;;;;;;;;;;;22.30;96.00;;;;;;4922294;29;20315;-64
2024/04/05 12:13:49;;;;;;;;;;;22.40;95.80;;;;;;4918236;29;19938;-64
2024/04/05 12:16:14;;;;;;;;;;;22.50;95.60;;;;;;4923876;29;19938;-64
2024/04/05 12:18:41;;;;;;;;;;;22.50;92.50;;;;;;4931417;29;20025;-64
2024/04/05 12:21:07;;;;;;;;;;;22.50;94.30;;;;;;4928819;29;20619;-64
2024/04/05 12:23:36;;;;;;;;;;;22.50;95.50;;;;;;4907148;29;20144;-64
2024/04/05 12:26:02;;;;;;;;;;;22.60;93.90;;;;;;4932316;29;20407;-64
2024/04/05 12:28:28;;;;;;;;;;;22.60;92.90;;;;;;4919217;29;20403;-64
2024/04/05 12:30:54;;;;;;;;;;;22.70;93.10;;;;;;4911567;29;19989;-64
2024/04/05 12:33:20;;;;;;;;;;;22.80;91.90;;;;;;4919230;29;19935;-64
2024/04/05 12:36:03;;;;;;;;;;;22.80;90.60;;;;;;4921695;29;19931;-64
2024/04/05 12:38:31;;;;;;;;;;;22.70;90.40;;;;;;4902116;29;20447;-64
2024/04/05 12:40:57;;;;;;;;;;;22.80;90.00;;;;;;4912512;29;19934;-64
2024/04/05 12:43:23;;;;;;;;;;;22.70;89.70;;;;;;4921614;29;19990;-64
2024/04/05 12:46:00;;;;;;;;;;;22.70;90.30;;;;;;4901573;29;19934;-64
2024/04/05 12:48:26;;;;;;;;;;;22.80;92.50;;;;;;4918154;29;19982;-64
2024/04/05 12:50:59;;;;;;;;;;;22.80;91.00;;;;;;4918795;29;20378;-64
2024/04/05 12:53:25;;;;;;;;;;;22.90;83.30;;;;;;4917164;29;19930;-64
2024/04/05 12:55:59;;;;;;;;;;;22.80;82.80;;;;;;4898954;29;19994;-64
2024/04/05 12:58:30;;;;;;;;;;;22.80;84.50;;;;;;4927130;29;19934;-64
2024/04/05 13:00:58;;;;;;;;;;;22.70;85.00;;;;;;4920305;29;19952;-65
2024/04/05 13:03:24;;;;;;;;;;;22.60;81.90;;;;;;4919723;29;19930;-65
2024/04/05 13:05:50;;;;;;;;;;;22.70;81.00;;;;;;4919485;29;19986;-65
2024/04/05 13:08:15;;;;;;;;;;;22.70;83.80;;;;;;4925000;29;19927;-64
2024/04/05 13:10:41;;;;;;;;;;;22.80;84.60;;;;;;4905227;29;19927;-64
2024/04/05 13:13:07;;;;;;;;;;;23.00;81.60;;;;;;4908838;29;19930;-64
2024/04/05 13:15:37;;;;;;;;;;;23.00;81.50;;;;;;4930514;29;19927;-64
2024/04/05 13:18:03;;;;;;;;;;;23.00;80.70;;;;;;4918009;29;19927;-65
2024/04/05 13:20:29;;;;;;;;;;;23.00;80.80;;;;;;4916810;29;20065;-64
2024/04/05 13:22:55;;;;;;;;;;;23.10;83.90;;;;;;4915463;29;19930;-65
2024/04/05 13:25:21;;;;;;;;;;;23.10;78.80;;;;;;4900547;29;19941;-65
2024/04/05 13:27:47;;;;;;;;;;;23.20;80.10;;;;;;4918842;29;19935;-65
2024/04/05 13:30:13;;;;;;;;;;;23.00;77.60;;;;;;4922345;29;20340;-65
2024/04/05 13:32:39;;;;;;;;;;;22.80;83.10;;;;;;4930028;29;19991;-64
2024/04/05 13:35:05;;;;;;;;;;;22.70;80.40;;;;;;4907008;29;19982;-65
2024/04/05 13:37:31;;;;;;;;;;;22.60;80.20;;;;;;4913957;29;19931;-65
2024/04/05 13:39:57;;;;;;;;;;;22.50;78.60;;;;;;4916005;29;19938;-65
2024/04/05 13:42:23;;;;;;;;;;;22.40;79.50;;;;;;4915678;29;19981;-64
2024/04/05 13:44:52;;;;;;;;;;;22.40;84.30;;;;;;4914191;29;20412;-64
2024/04/05 13:47:19;;;;;;;;;;;22.30;81.10;;;;;;4916371;29;20361;-64
2024/04/05 13:49:45;;;;;;;;;;;22.30;81.90;;;;;;4917608;29;19934;-65
2024/04/05 13:52:11;;;;;;;;;;;22.20;81.90;;;;;;4924283;29;20021;-64
2024/04/05 13:54:37;;;;;;;;;;;22.10;81.80;;;;;;4916860;29;20006;-64
2024/04/05 13:57:03;;;;;;;;;;;22.00;82.40;;;;;;4905170;29;20396;-65
2024/04/05 13:59:29;;;;;;;;;;;21.80;82.50;;;;;;4926284;29;20408;-65
2024/04/05 14:01:55;;;;;;;;;;;21.70;83.20;;;;;;4917107;29;19985;-64
2024/04/05 14:04:21;;;;;;;;;;;21.60;81.50;;;;;;4918609;29;19945;-64
2024/04/05 14:06:46;;;;;;;;;;;21.60;84.20;;;;;;4915794;29;19930;-65
2024/04/05 14:09:12;;;;;;;;;;;21.60;83.40;;;;;;4929888;29;19931;-64
2024/04/05 14:11:39;;;;;;;;;;;21.60;83.90;;;;;;4906104;29;20362;-65
2024/04/05 14:14:05;;;;;;;;;;;21.60;86.00;;;;;;4920907;29;19931;-65
2024/04/05 14:16:32;;;;;;;;;;;21.60;87.50;;;;;;4922301;29;19934;-64